Time;durP1;ratioP1;P1;durP2;ratioP2;P2;SDS_P1;SDS_P2;PMS_P1;PMS_P2;Temp;Humidity;BMP_temperature;BMP_pressure;BME280_temperature;BME280_humidity;BME280_pressure;Samples;Min_cycle;Max_cycle;Signal;HPM_P1;HPM_P2
2021/12/31 00:02:03;;;;;;;2.05;1.70;;;;;;;;;;4978084;28;20049;-77
2021/12/31 00:04:28;;;;;;;1.98;1.70;;;;;;;;;;4977463;28;20018;-78
2021/12/31 00:06:53;;;;;;;3.05;1.67;;;;;;;;;;4976216;28;20023;-78
2021/12/31 00:09:18;;;;;;;2.03;1.90;;;;;;;;;;4976983;28;20393;-78
2021/12/31 00:11:44;;;;;;;2.22;2.10;;;;;;;;;;4992848;28;20037;-77
2021/12/31 00:14:09;;;;;;;2.15;2.05;;;;;;;;;;4976862;28;20121;-77
2021/12/31 00:16:34;;;;;;;2.30;2.10;;;;;;;;;;4974242;28;20109;-77
2021/12/31 00:19:00;;;;;;;2.60;2.38;;;;;;;;;;4967151;28;20086;-77
2021/12/31 00:21:25;;;;;;;2.40;2.30;;;;;;;;;;4993583;28;20050;-78
2021/12/31 00:23:51;;;;;;;2.78;2.30;;;;;;;;;;4976050;28;20037;-77
2021/12/31 00:26:16;;;;;;;2.85;2.60;;;;;;;;;;4977407;28;20026;-78
2021/12/31 00:28:41;;;;;;;2.65;2.45;;;;;;;;;;4991678;28;20050;-77
2021/12/31 00:31:07;;;;;;;2.65;2.42;;;;;;;;;;4990989;28;20049;-77
2021/12/31 00:33:32;;;;;;;3.22;2.80;;;;;;;;;;4976142;28;20049;-78
2021/12/31 00:35:57;;;;;;;3.00;2.80;;;;;;;;;;4977101;28;20038;-77
2021/12/31 00:38:23;;;;;;;3.15;2.95;;;;;;;;;;4975481;28;20109;-77
2021/12/31 00:40:48;;;;;;;3.20;2.95;;;;;;;;;;4991719;28;20065;-77
2021/12/31 00:43:13;;;;;;;3.80;3.22;;;;;;;;;;4976654;28;20038;-78
2021/12/31 00:45:40;;;;;;;3.50;3.20;;;;;;;;;;4987818;28;20031;-77
2021/12/31 00:48:09;;;;;;;3.25;3.05;;;;;;;;;;4991907;28;20125;-76
2021/12/31 00:50:35;;;;;;;3.38;3.10;;;;;;;;;;4976429;28;20922;-77
2021/12/31 00:53:00;;;;;;;3.58;3.28;;;;;;;;;;4976400;28;20026;-77
2021/12/31 00:55:26;;;;;;;5.10;3.45;;;;;;;;;;4967494;28;20039;-77
2021/12/31 00:57:51;;;;;;;3.80;3.50;;;;;;;;;;4947797;28;20037;-77
2021/12/31 01:00:17;;;;;;;3.88;3.58;;;;;;;;;;4971681;28;20393;-78
2021/12/31 01:02:43;;;;;;;3.40;3.17;;;;;;;;;;4968451;28;20031;-78
2021/12/31 01:05:09;;;;;;;5.10;3.92;;;;;;;;;;4978974;28;20050;-77
2021/12/31 01:07:35;;;;;;;5.40;3.70;;;;;;;;;;4969554;28;22022;-77
2021/12/31 01:10:01;;;;;;;4.45;3.50;;;;;;;;;;4959846;28;20046;-77
2021/12/31 01:12:26;;;;;;;3.95;3.65;;;;;;;;;;4975807;28;20037;-77
2021/12/31 01:15:02;;;;;;;4.22;3.83;;;;;;;;;;4979071;28;20034;-77
2021/12/31 01:20:13;;;;;;;4.60;3.72;;;;;;;;;;4979539;28;20033;-77
2021/12/31 01:22:38;;;;;;;4.38;3.97;;;;;;;;;;4981733;28;20421;-77
2021/12/31 01:25:04;;;;;;;4.07;3.67;;;;;;;;;;4994620;28;20023;-77
2021/12/31 01:27:30;;;;;;;4.03;3.72;;;;;;;;;;4978596;28;20039;-77
2021/12/31 01:29:55;;;;;;;4.30;3.90;;;;;;;;;;4978011;28;20034;-77
2021/12/31 01:32:20;;;;;;;4.35;3.72;;;;;;;;;;4995938;28;20477;-77
2021/12/31 01:34:45;;;;;;;4.00;3.55;;;;;;;;;;4978618;28;20034;-77
2021/12/31 01:37:11;;;;;;;3.97;3.60;;;;;;;;;;4980803;28;20027;-77
2021/12/31 01:39:36;;;;;;;4.00;3.70;;;;;;;;;;4978792;28;20160;-77
2021/12/31 01:42:03;;;;;;;3.83;3.40;;;;;;;;;;4966747;28;20544;-77
2021/12/31 01:44:34;;;;;;;3.55;3.25;;;;;;;;;;4964511;28;20288;-77
2021/12/31 01:47:04;;;;;;;3.83;3.50;;;;;;;;;;4981285;28;20113;-77
2021/12/31 01:49:35;;;;;;;3.30;3.05;;;;;;;;;;4992017;28;20026;-77
2021/12/31 01:52:01;;;;;;;3.85;2.95;;;;;;;;;;4980379;28;20034;-78
2021/12/31 01:54:27;;;;;;;2.60;2.40;;;;;;;;;;4980398;28;20481;-78
2021/12/31 01:56:53;;;;;;;2.42;2.30;;;;;;;;;;4978729;28;20076;-76
2021/12/31 01:59:18;;;;;;;6.38;2.38;;;;;;;;;;4978778;28;20031;-78
2021/12/31 02:01:43;;;;;;;3.15;2.15;;;;;;;;;;4993661;28;20034;-77
2021/12/31 02:04:09;;;;;;;2.28;2.10;;;;;;;;;;4964668;28;20023;-77
2021/12/31 02:06:34;;;;;;;2.35;2.20;;;;;;;;;;4978717;28;20049;-78
2021/12/31 02:09:01;;;;;;;2.63;2.03;;;;;;;;;;4995607;28;20035;-77
2021/12/31 02:11:28;;;;;;;2.10;2.00;;;;;;;;;;4994129;28;20049;-77
2021/12/31 02:13:53;;;;;;;1.85;1.75;;;;;;;;;;4980688;28;20026;-77
2021/12/31 02:16:18;;;;;;;1.77;1.67;;;;;;;;;;4979324;28;20546;-77
2021/12/31 02:18:44;;;;;;;1.92;1.65;;;;;;;;;;4979492;28;20023;-77
2021/12/31 02:21:13;;;;;;;1.75;1.60;;;;;;;;;;4977507;28;20089;-77
2021/12/31 02:23:48;;;;;;;1.80;1.70;;;;;;;;;;4981496;28;20030;-77
2021/12/31 02:26:14;;;;;;;1.63;1.52;;;;;;;;;;4978556;28;20450;-78
2021/12/31 02:28:39;;;;;;;1.65;1.55;;;;;;;;;;4962556;28;20027;-77
2021/12/31 02:31:05;;;;;;;1.42;1.40;;;;;;;;;;4991972;28;20046;-77
2021/12/31 02:33:30;;;;;;;1.60;1.50;;;;;;;;;;4978737;28;20031;-78
2021/12/31 02:35:56;;;;;;;2.45;1.50;;;;;;;;;;4977354;28;20485;-77
2021/12/31 02:38:22;;;;;;;1.70;1.60;;;;;;;;;;4976873;28;20122;-77
2021/12/31 02:40:47;;;;;;;1.52;1.40;;;;;;;;;;4979746;28;20034;-77
2021/12/31 02:43:12;;;;;;;1.67;1.50;;;;;;;;;;4979215;28;20085;-77
2021/12/31 02:45:40;;;;;;;1.38;1.30;;;;;;;;;;4967962;28;20101;-77
2021/12/31 02:48:06;;;;;;;1.50;1.40;;;;;;;;;;4977208;28;20054;-77
2021/12/31 02:50:35;;;;;;;2.45;1.88;;;;;;;;;;4982643;28;20456;-77
2021/12/31 02:53:02;;;;;;;1.80;1.70;;;;;;;;;;4971331;28;20388;-77
2021/12/31 02:55:27;;;;;;;1.52;1.42;;;;;;;;;;4988876;28;20027;-77
2021/12/31 02:57:52;;;;;;;1.67;1.55;;;;;;;;;;4962979;28;20552;-77
2021/12/31 03:00:18;;;;;;;1.50;1.40;;;;;;;;;;4963330;28;20031;-77
2021/12/31 03:02:44;;;;;;;2.15;1.65;;;;;;;;;;4980233;28;20019;-77
2021/12/31 03:05:09;;;;;;;1.60;1.50;;;;;;;;;;4965985;28;20516;-78
2021/12/31 03:07:36;;;;;;;1.50;1.40;;;;;;;;;;4977752;28;20537;-77
2021/12/31 03:10:02;;;;;;;1.50;1.40;;;;;;;;;;4988474;28;20038;-77
2021/12/31 03:12:27;;;;;;;1.35;1.25;;;;;;;;;;4979834;28;20060;-77
2021/12/31 03:14:54;;;;;;;1.25;1.13;;;;;;;;;;4967516;28;20031;-77
2021/12/31 03:17:19;;;;;;;1.70;1.30;;;;;;;;;;4975912;28;20089;-77
2021/12/31 03:19:45;;;;;;;1.15;1.10;;;;;;;;;;4965996;28;20035;-77
2021/12/31 03:22:10;;;;;;;2.15;1.17;;;;;;;;;;4973179;28;20114;-77
2021/12/31 03:24:35;;;;;;;1.30;1.20;;;;;;;;;;4963048;28;20108;-77
2021/12/31 03:27:01;;;;;;;2.88;1.13;;;;;;;;;;4976636;28;20026;-77
2021/12/31 03:29:26;;;;;;;1.08;0.98;;;;;;;;;;4997333;28;20065;-77
2021/12/31 03:31:52;;;;;;;1.63;0.93;;;;;;;;;;4994458;28;20034;-77
2021/12/31 03:34:18;;;;;;;1.20;1.00;;;;;;;;;;4960941;28;20033;-77
2021/12/31 03:36:43;;;;;;;1.35;1.20;;;;;;;;;;4977841;28;20027;-77
2021/12/31 03:39:09;;;;;;;1.13;1.10;;;;;;;;;;4969489;28;20031;-77
2021/12/31 03:41:34;;;;;;;1.00;1.00;;;;;;;;;;4967217;28;20023;-77
2021/12/31 03:44:00;;;;;;;1.00;1.00;;;;;;;;;;4975595;28;20031;-77
2021/12/31 03:46:25;;;;;;;1.30;1.20;;;;;;;;;;4989016;28;20054;-77
2021/12/31 03:48:50;;;;;;;2.08;1.00;;;;;;;;;;4977955;28;20297;-77
2021/12/31 03:51:16;;;;;;;0.98;0.98;;;;;;;;;;4981440;28;20058;-77
2021/12/31 03:53:41;;;;;;;1.00;1.00;;;;;;;;;;4991121;28;20077;-77
2021/12/31 03:56:06;;;;;;;3.22;1.20;;;;;;;;;;4974277;28;20058;-77
2021/12/31 03:58:32;;;;;;;1.00;0.93;;;;;;;;;;4971029;28;20462;-77
2021/12/31 04:00:57;;;;;;;1.08;0.98;;;;;;;;;;4990338;28;20443;-77
2021/12/31 04:03:22;;;;;;;1.08;1.08;;;;;;;;;;4969253;28;20058;-77
2021/12/31 04:05:49;;;;;;;1.30;1.17;;;;;;;;;;4972492;28;20035;-78
2021/12/31 04:08:15;;;;;;;1.00;1.00;;;;;;;;;;4955547;28;20022;-77
2021/12/31 04:10:40;;;;;;;0.80;0.80;;;;;;;;;;4970278;28;20041;-77
2021/12/31 04:13:06;;;;;;;1.00;1.00;;;;;;;;;;4968696;28;20033;-77
2021/12/31 04:15:31;;;;;;;1.08;1.00;;;;;;;;;;4968340;28;20054;-77
2021/12/31 04:17:56;;;;;;;0.93;0.93;;;;;;;;;;4981117;28;20079;-77
2021/12/31 04:20:33;;;;;;;0.95;0.95;;;;;;;;;;4971590;28;20081;-78
2021/12/31 04:23:01;;;;;;;1.00;1.00;;;;;;;;;;4976738;28;20543;-77
2021/12/31 04:25:26;;;;;;;1.00;1.00;;;;;;;;;;4971996;28;20025;-77
2021/12/31 04:27:51;;;;;;;1.92;1.33;;;;;;;;;;4989989;28;20089;-77
2021/12/31 04:30:17;;;;;;;1.15;0.98;;;;;;;;;;4986583;28;20110;-77
2021/12/31 04:32:43;;;;;;;0.90;0.90;;;;;;;;;;4961496;28;20066;-77
2021/12/31 04:35:08;;;;;;;2.38;1.00;;;;;;;;;;4974948;28;20054;-77
2021/12/31 04:37:34;;;;;;;1.10;1.05;;;;;;;;;;4989113;28;20034;-77
2021/12/31 04:39:59;;;;;;;1.25;1.00;;;;;;;;;;4987731;28;20043;-77
2021/12/31 04:42:24;;;;;;;3.22;0.90;;;;;;;;;;4966820;28;20031;-77
2021/12/31 04:44:50;;;;;;;0.90;0.90;;;;;;;;;;4969510;28;20038;-77
2021/12/31 04:47:15;;;;;;;1.13;1.05;;;;;;;;;;4979829;28;20022;-77
2021/12/31 04:49:40;;;;;;;0.82;0.80;;;;;;;;;;4968520;28;20088;-77
2021/12/31 04:52:06;;;;;;;1.58;0.90;;;;;;;;;;4982022;28;20026;-77
2021/12/31 04:54:31;;;;;;;0.95;0.95;;;;;;;;;;4981368;28;21298;-77
2021/12/31 04:56:58;;;;;;;0.75;0.75;;;;;;;;;;4981727;28;20027;-77
2021/12/31 04:59:23;;;;;;;0.93;0.93;;;;;;;;;;4972527;28;20390;-77
2021/12/31 05:01:49;;;;;;;0.90;0.90;;;;;;;;;;4967361;28;20049;-77
2021/12/31 05:04:15;;;;;;;0.98;0.80;;;;;;;;;;4968793;28;20107;-77
2021/12/31 05:06:40;;;;;;;0.95;0.95;;;;;;;;;;4958196;28;20058;-77
2021/12/31 05:09:06;;;;;;;1.10;1.00;;;;;;;;;;4991973;28;20084;-77
2021/12/31 05:11:32;;;;;;;1.17;0.90;;;;;;;;;;4980725;28;20544;-77
2021/12/31 05:13:57;;;;;;;0.88;0.88;;;;;;;;;;4955092;28;20027;-77
2021/12/31 05:16:22;;;;;;;0.82;0.82;;;;;;;;;;4978859;28;20033;-77
2021/12/31 05:18:48;;;;;;;0.77;0.77;;;;;;;;;;4972778;28;20400;-77
2021/12/31 05:21:13;;;;;;;0.90;0.90;;;;;;;;;;4991861;28;20073;-77
2021/12/31 05:23:38;;;;;;;0.95;0.95;;;;;;;;;;4976034;28;20518;-77
2021/12/31 05:26:04;;;;;;;1.33;0.90;;;;;;;;;;4993127;28;20035;-77
2021/12/31 05:28:32;;;;;;;0.80;0.80;;;;;;;;;;4973675;28;20090;-77
2021/12/31 05:30:57;;;;;;;1.17;1.00;;;;;;;;;;4961052;28;20061;-77
2021/12/31 05:33:22;;;;;;;1.00;1.00;;;;;;;;;;4975136;28;20062;-77
2021/12/31 05:35:48;;;;;;;2.05;1.00;;;;;;;;;;4970522;28;20069;-77
2021/12/31 05:38:13;;;;;;;1.65;1.13;;;;;;;;;;4973123;28;20034;-77
2021/12/31 05:40:38;;;;;;;2.15;1.00;;;;;;;;;;4966832;28;20094;-77
2021/12/31 05:43:04;;;;;;;1.20;1.10;;;;;;;;;;4969187;28;20018;-77
2021/12/31 05:45:29;;;;;;;2.17;1.10;;;;;;;;;;4962965;28;20423;-77
2021/12/31 05:47:54;;;;;;;1.27;1.17;;;;;;;;;;4978899;28;20556;-77
2021/12/31 05:50:29;;;;;;;1.58;1.05;;;;;;;;;;4969400;28;20101;-77
2021/12/31 05:52:55;;;;;;;;;;;;;;;;;;4973393;28;20023;-77
2021/12/31 05:55:20;;;;;;;1.20;1.10;;;;;;;;;;4970219;28;19911;-77
2021/12/31 05:57:45;;;;;;;1.65;1.40;;;;;;;;;;4971402;28;20030;-77
2021/12/31 06:00:12;;;;;;;1.98;1.67;;;;;;;;;;4979056;28;20085;-77
2021/12/31 06:02:37;;;;;;;0.93;0.93;;;;;;;;;;4978441;28;20026;-77
2021/12/31 06:05:03;;;;;;;0.93;0.93;;;;;;;;;;4963388;28;20027;-77
2021/12/31 06:07:28;;;;;;;1.02;1.00;;;;;;;;;;4968847;28;20034;-76
2021/12/31 06:09:54;;;;;;;1.00;1.00;;;;;;;;;;4976421;28;20031;-77
2021/12/31 06:12:19;;;;;;;0.95;0.95;;;;;;;;;;4972672;28;20081;-77
2021/12/31 06:14:44;;;;;;;1.10;1.10;;;;;;;;;;4985342;28;20034;-77
2021/12/31 06:17:11;;;;;;;1.40;1.30;;;;;;;;;;4953724;28;20161;-77
2021/12/31 06:19:38;;;;;;;2.03;1.50;;;;;;;;;;4996515;28;20477;-76
2021/12/31 06:22:03;;;;;;;1.75;1.38;;;;;;;;;;4975917;28;20071;-77
2021/12/31 06:24:29;;;;;;;1.50;1.40;;;;;;;;;;4991632;28;20166;-77
2021/12/31 06:26:55;;;;;;;1.50;1.40;;;;;;;;;;5001065;28;20058;-77
2021/12/31 06:29:20;;;;;;;1.60;1.50;;;;;;;;;;4969470;28;20034;-77
2021/12/31 06:31:45;;;;;;;1.60;1.50;;;;;;;;;;4974449;28;20058;-77
2021/12/31 06:34:11;;;;;;;1.83;1.70;;;;;;;;;;4971418;28;20534;-77
2021/12/31 06:36:36;;;;;;;2.13;1.58;;;;;;;;;;4975109;28;20538;-77
2021/12/31 06:39:03;;;;;;;1.48;1.35;;;;;;;;;;4990901;28;20081;-76
2021/12/31 06:41:28;;;;;;;6.38;1.70;;;;;;;;;;4976842;28;20022;-76
2021/12/31 06:43:54;;;;;;;1.70;1.30;;;;;;;;;;4979018;28;20485;-77
2021/12/31 06:46:20;;;;;;;1.60;1.50;;;;;;;;;;4976846;28;20041;-75
2021/12/31 06:48:46;;;;;;;1.55;1.45;;;;;;;;;;4975282;28;20026;-75
2021/12/31 06:51:11;;;;;;;1.50;1.40;;;;;;;;;;4975770;28;20528;-75
2021/12/31 06:53:36;;;;;;;1.67;1.33;;;;;;;;;;4974331;28;20038;-75
2021/12/31 06:56:02;;;;;;;2.00;1.40;;;;;;;;;;4989579;28;20104;-75
2021/12/31 06:58:27;;;;;;;1.30;1.20;;;;;;;;;;4989739;28;20117;-75
2021/12/31 07:00:52;;;;;;;1.25;1.15;;;;;;;;;;4972566;28;20055;-75
2021/12/31 07:03:18;;;;;;;1.45;1.35;;;;;;;;;;4991037;28;20078;-75
2021/12/31 07:05:43;;;;;;;1.70;1.60;;;;;;;;;;4975229;28;20133;-76
2021/12/31 07:08:09;;;;;;;3.00;1.73;;;;;;;;;;4975762;28;20022;-75
2021/12/31 07:10:35;;;;;;;3.15;2.20;;;;;;;;;;4976174;28;20038;-75
2021/12/31 07:13:10;;;;;;;3.42;2.50;;;;;;;;;;4975019;28;20114;-75
2021/12/31 07:15:48;;;;;;;4.03;2.90;;;;;;;;;;4975099;28;20034;-75
2021/12/31 07:18:14;;;;;;;3.88;2.38;;;;;;;;;;4991404;28;20026;-75
2021/12/31 07:20:39;;;;;;;3.55;2.78;;;;;;;;;;4974886;28;20034;-75
2021/12/31 07:23:09;;;;;;;2.40;2.20;;;;;;;;;;4992771;28;20026;-75
2021/12/31 07:25:34;;;;;;;2.95;2.30;;;;;;;;;;4974258;28;20034;-75
2021/12/31 07:28:00;;;;;;;3.38;2.90;;;;;;;;;;4981675;28;20034;-75
2021/12/31 07:30:25;;;;;;;2.83;2.60;;;;;;;;;;4991317;28;20045;-75
2021/12/31 07:32:50;;;;;;;2.42;2.17;;;;;;;;;;4977450;28;20402;-75
2021/12/31 07:35:16;;;;;;;3.13;2.40;;;;;;;;;;4990312;28;20030;-75
2021/12/31 07:37:41;;;;;;;4.00;2.33;;;;;;;;;;4970177;28;20513;-75
2021/12/31 07:40:10;;;;;;;2.25;2.00;;;;;;;;;;4960770;28;20035;-75
2021/12/31 07:42:35;;;;;;;2.42;1.90;;;;;;;;;;4958018;28;20041;-75
2021/12/31 07:45:00;;;;;;;1.60;1.50;;;;;;;;;;4974332;28;20470;-75
2021/12/31 07:47:26;;;;;;;1.75;1.60;;;;;;;;;;4973182;28;20508;-75
2021/12/31 07:49:51;;;;;;;1.55;1.45;;;;;;;;;;4969412;28;20122;-76
2021/12/31 07:52:16;;;;;;;1.58;1.48;;;;;;;;;;4972356;28;20038;-75
2021/12/31 07:54:42;;;;;;;1.50;1.40;;;;;;;;;;4977219;28;20066;-76
2021/12/31 07:57:07;;;;;;;3.13;1.48;;;;;;;;;;4989005;28;20677;-75
2021/12/31 07:59:32;;;;;;;1.50;1.40;;;;;;;;;;4974688;28;20438;-76
2021/12/31 08:01:58;;;;;;;33.25;11.05;;;;;;;;;;4969409;28;20043;-75
2021/12/31 08:04:23;;;;;;;2.53;2.30;;;;;;;;;;4990421;28;20058;-75
2021/12/31 08:06:49;;;;;;;1.73;1.63;;;;;;;;;;4973553;28;20038;-75
2021/12/31 08:09:14;;;;;;;2.50;2.17;;;;;;;;;;4974088;28;20034;-76
2021/12/31 08:11:41;;;;;;;1.95;1.73;;;;;;;;;;4974178;28;20545;-76
2021/12/31 08:14:06;;;;;;;2.67;1.58;;;;;;;;;;4974842;28;20049;-76
2021/12/31 08:16:31;;;;;;;1.50;1.40;;;;;;;;;;4972059;28;20057;-72
2021/12/31 08:18:57;;;;;;;3.55;1.95;;;;;;;;;;4971384;28;20575;-72
2021/12/31 08:21:22;;;;;;;3.38;1.98;;;;;;;;;;4986618;28;20045;-77
2021/12/31 08:23:48;;;;;;;2.50;1.98;;;;;;;;;;4986208;28;20034;-77
2021/12/31 08:26:13;;;;;;;1.80;1.70;;;;;;;;;;4972518;28;20026;-77
2021/12/31 08:28:38;;;;;;;1.60;1.50;;;;;;;;;;4974358;28;20038;-77
2021/12/31 08:31:04;;;;;;;2.28;1.70;;;;;;;;;;4974389;28;20048;-76
2021/12/31 08:33:29;;;;;;;1.90;1.70;;;;;;;;;;4973563;28;20050;-76
2021/12/31 08:35:55;;;;;;;3.00;2.05;;;;;;;;;;4971778;28;20668;-77
2021/12/31 08:38:21;;;;;;;3.53;1.60;;;;;;;;;;4986705;28;20023;-76
2021/12/31 08:40:46;;;;;;;1.50;1.40;;;;;;;;;;4973619;28;20023;-76
2021/12/31 08:43:11;;;;;;;2.67;2.08;;;;;;;;;;4974292;28;20030;-76
2021/12/31 08:45:36;;;;;;;1.80;1.70;;;;;;;;;;4969768;28;20065;-76
2021/12/31 08:48:02;;;;;;;2.85;1.60;;;;;;;;;;4976478;28;20074;-76
2021/12/31 08:50:27;;;;;;;1.38;1.27;;;;;;;;;;4974010;28;20046;-77
2021/12/31 08:52:53;;;;;;;1.98;1.40;;;;;;;;;;4990221;28;20069;-76
2021/12/31 08:55:18;;;;;;;1.50;1.40;;;;;;;;;;4970694;28;20117;-76
2021/12/31 08:57:43;;;;;;;1.63;1.52;;;;;;;;;;4975548;28;20030;-76
2021/12/31 09:00:10;;;;;;;1.60;1.50;;;;;;;;;;4956963;28;20030;-76
2021/12/31 09:02:35;;;;;;;1.50;1.40;;;;;;;;;;4962103;28;20026;-77
2021/12/31 09:05:01;;;;;;;2.08;1.65;;;;;;;;;;4986883;28;20057;-76
2021/12/31 09:07:26;;;;;;;1.40;1.30;;;;;;;;;;4970184;28;20084;-76
2021/12/31 09:09:52;;;;;;;3.42;1.40;;;;;;;;;;4974455;28;20109;-76
2021/12/31 09:12:17;;;;;;;1.73;1.10;;;;;;;;;;4989942;28;20476;-76
2021/12/31 09:14:43;;;;;;;1.10;1.00;;;;;;;;;;4974585;28;20578;-77
2021/12/31 09:17:08;;;;;;;2.15;1.20;;;;;;;;;;4957791;28;20525;-77
2021/12/31 09:19:33;;;;;;;1.20;1.20;;;;;;;;;;4988890;28;20106;-77
2021/12/31 09:21:59;;;;;;;1.05;1.05;;;;;;;;;;4971638;28;20038;-76
2021/12/31 09:24:24;;;;;;;1.10;1.00;;;;;;;;;;4972859;28;20023;-76
2021/12/31 09:26:49;;;;;;;1.10;1.10;;;;;;;;;;4972384;28;20031;-76
2021/12/31 09:29:18;;;;;;;1.10;1.10;;;;;;;;;;4959190;28;20097;-76
2021/12/31 09:31:43;;;;;;;1.20;1.10;;;;;;;;;;4973152;28;20054;-76
2021/12/31 09:34:09;;;;;;;1.10;1.10;;;;;;;;;;4973497;28;20015;-77
2021/12/31 09:36:34;;;;;;;1.00;1.00;;;;;;;;;;4989509;28;20382;-77
2021/12/31 09:38:59;;;;;;;1.67;1.10;;;;;;;;;;4964498;28;20402;-76
2021/12/31 09:41:25;;;;;;;0.93;0.93;;;;;;;;;;4974921;28;20549;-76
2021/12/31 09:43:50;;;;;;;1.00;1.00;;;;;;;;;;4977945;28;20512;-77
2021/12/31 09:46:16;;;;;;;0.80;0.80;;;;;;;;;;4975361;28;20465;-77
2021/12/31 09:48:41;;;;;;;1.00;1.00;;;;;;;;;;4975138;28;20039;-77
2021/12/31 09:51:07;;;;;;;1.10;1.05;;;;;;;;;;4962297;28;20034;-72
2021/12/31 09:53:32;;;;;;;1.27;1.10;;;;;;;;;;4974491;28;20082;-72
2021/12/31 09:55:58;;;;;;;1.00;1.00;;;;;;;;;;4987954;28;20034;-76
2021/12/31 09:58:24;;;;;;;2.58;1.25;;;;;;;;;;4987840;28;20096;-76
2021/12/31 10:00:52;;;;;;;0.95;0.95;;;;;;;;;;4974292;28;20035;-76
2021/12/31 10:03:24;;;;;;;1.10;1.10;;;;;;;;;;4974295;28;20026;-77
2021/12/31 10:05:51;;;;;;;1.20;1.10;;;;;;;;;;4971143;28;20042;-77
2021/12/31 10:08:24;;;;;;;1.27;1.17;;;;;;;;;;4978605;28;20014;-76
2021/12/31 10:11:09;;;;;;;1.63;1.15;;;;;;;;;;4961023;28;20081;-76
2021/12/31 10:13:35;;;;;;;;;;;;;;;;;;4975797;28;20082;-75
2021/12/31 10:16:00;;;;;;;1.35;1.25;;;;;;;;;;4975856;28;20186;-75
2021/12/31 10:18:36;;;;;;;1.10;1.10;;;;;;;;;;4974112;28;20120;-76
2021/12/31 10:21:02;;;;;;;1.02;1.02;;;;;;;;;;4966635;28;20537;-75
2021/12/31 10:23:28;;;;;;;1.10;1.10;;;;;;;;;;4959095;28;20557;-76
2021/12/31 10:26:09;;;;;;;1.60;1.50;;;;;;;;;;4976855;28;20057;-74
2021/12/31 10:28:34;;;;;;;1.23;1.13;;;;;;;;;;4988300;28;20038;-75
2021/12/31 10:31:13;;;;;;;1.40;1.30;;;;;;;;;;4989473;28;20042;-74
2021/12/31 10:33:45;;;;;;;1.88;1.23;;;;;;;;;;4961441;28;20027;-74
2021/12/31 10:36:30;;;;;;;1.20;1.10;;;;;;;;;;4975265;28;20102;-74
2021/12/31 10:38:55;;;;;;;;;;;;;;;;;;4975920;28;20088;-74
2021/12/31 10:41:23;;;;;;;1.10;1.08;;;;;;;;;;4972857;28;19918;-74
2021/12/31 10:43:56;;;;;;;1.30;1.20;;;;;;;;;;4975332;28;20055;-74
2021/12/31 10:46:22;;;;;;;1.40;1.30;;;;;;;;;;4976608;28;20036;-74
2021/12/31 10:48:50;;;;;;;2.00;1.25;;;;;;;;;;4974814;28;20432;-74
2021/12/31 10:51:16;;;;;;;1.55;1.13;;;;;;;;;;4974087;28;20039;-74
2021/12/31 10:53:49;;;;;;;1.92;1.20;;;;;;;;;;4975662;28;20031;-74
2021/12/31 10:56:15;;;;;;;1.20;1.10;;;;;;;;;;4989854;28;20088;-75
2021/12/31 10:58:42;;;;;;;1.45;1.00;;;;;;;;;;4973459;28;20030;-80
2021/12/31 11:01:10;;;;;;;1.08;1.08;;;;;;;;;;4972944;28;20035;-79
2021/12/31 11:03:36;;;;;;;1.15;1.15;;;;;;;;;;4976523;28;20481;-79
2021/12/31 11:06:02;;;;;;;2.78;1.40;;;;;;;;;;4961354;28;20037;-79
2021/12/31 11:08:27;;;;;;;1.20;1.10;;;;;;;;;;4992131;28;20097;-79
2021/12/31 11:10:52;;;;;;;1.40;1.30;;;;;;;;;;4992453;28;20030;-78
2021/12/31 11:13:21;;;;;;;1.33;1.23;;;;;;;;;;4992401;28;20429;-78
2021/12/31 11:15:47;;;;;;;1.17;1.10;;;;;;;;;;4974692;28;21686;-79
2021/12/31 11:18:13;;;;;;;1.40;1.27;;;;;;;;;;4976167;28;20018;-79
2021/12/31 11:20:39;;;;;;;1.40;1.30;;;;;;;;;;4973202;28;20032;-77
2021/12/31 11:23:05;;;;;;;0.90;0.90;;;;;;;;;;4963793;28;20129;-77
2021/12/31 11:25:30;;;;;;;1.20;1.10;;;;;;;;;;4971748;28;20489;-77
2021/12/31 11:27:56;;;;;;;2.53;1.23;;;;;;;;;;4989088;28;20033;-77
2021/12/31 11:30:31;;;;;;;1.10;1.10;;;;;;;;;;4972474;28;20031;-77
2021/12/31 11:32:56;;;;;;;;;;;;;;;;;;4971581;28;20033;-77
2021/12/31 11:35:45;;;;;;;1.42;1.17;;;;;;;;;;4975427;28;19914;-77
2021/12/31 11:38:20;;;;;;;1.95;1.20;;;;;;;;;;4960563;28;20132;-77
2021/12/31 11:40:50;;;;;;;1.42;1.33;;;;;;;;;;4975606;28;20047;-77
2021/12/31 11:43:26;;;;;;;1.60;1.50;;;;;;;;;;4989866;28;20022;-77
2021/12/31 11:46:10;;;;;;;2.35;1.80;;;;;;;;;;4974551;28;20042;-77
2021/12/31 11:48:48;;;;;;;2.65;1.65;;;;;;;;;;4975167;28;20046;-77
2021/12/31 11:51:35;;;;;;;1.92;1.45;;;;;;;;;;4973585;28;20034;-77
2021/12/31 11:54:00;;;;;;;1.35;1.25;;;;;;;;;;4974213;28;20062;-77
2021/12/31 11:59:05;;;;;;;1.38;1.27;;;;;;;;;;4974139;28;20555;-78
2021/12/31 12:01:36;;;;;;;1.23;1.17;;;;;;;;;;4973716;28;20051;-78
2021/12/31 12:04:24;;;;;;;1.20;1.10;;;;;;;;;;4972312;28;20039;-77
2021/12/31 12:06:50;;;;;;;1.58;1.20;;;;;;;;;;4970023;28;20041;-77
2021/12/31 12:09:15;;;;;;;1.73;1.05;;;;;;;;;;4971498;28;20025;-77
2021/12/31 12:12:02;;;;;;;1.30;1.20;;;;;;;;;;4970701;28;20117;-77
2021/12/31 12:14:28;;;;;;;2.03;1.25;;;;;;;;;;4973775;28;20117;-77
2021/12/31 12:16:55;;;;;;;1.60;1.38;;;;;;;;;;4973328;28;20464;-77
2021/12/31 12:19:20;;;;;;;7.95;1.23;;;;;;;;;;4973963;28;20023;-77
2021/12/31 12:21:45;;;;;;;1.25;1.15;;;;;;;;;;4987495;28;20026;-77
2021/12/31 12:24:11;;;;;;;1.45;1.35;;;;;;;;;;4956352;28;20026;-77
2021/12/31 12:26:36;;;;;;;4.43;1.73;;;;;;;;;;4972079;28;20031;-77
2021/12/31 12:29:02;;;;;;;1.95;1.77;;;;;;;;;;4985155;28;20668;-77
2021/12/31 12:31:34;;;;;;;2.00;1.80;;;;;;;;;;4984580;28;20049;-77
2021/12/31 12:33:59;;;;;;;2.88;1.50;;;;;;;;;;4973692;28;20018;-77
2021/12/31 12:36:25;;;;;;;2.20;1.40;;;;;;;;;;4971872;28;20522;-78
2021/12/31 12:39:00;;;;;;;1.17;1.10;;;;;;;;;;4988332;28;20039;-77
2021/12/31 12:41:25;;;;;;;1.45;1.10;;;;;;;;;;4971362;28;20034;-78
2021/12/31 12:43:50;;;;;;;1.40;1.30;;;;;;;;;;4986456;28;20290;-77
2021/12/31 12:46:18;;;;;;;1.48;1.13;;;;;;;;;;4971968;28;20038;-77
2021/12/31 12:48:52;;;;;;;1.30;1.20;;;;;;;;;;4972470;28;20144;-77
2021/12/31 12:51:25;;;;;;;1.20;1.00;;;;;;;;;;4971973;28;20027;-77
2021/12/31 12:53:50;;;;;;;1.23;1.13;;;;;;;;;;4969376;28;20481;-77
2021/12/31 12:56:17;;;;;;;1.25;1.13;;;;;;;;;;4971340;28;20092;-77
2021/12/31 12:58:50;;;;;;;1.00;1.00;;;;;;;;;;4971433;28;20397;-77
2021/12/31 13:01:15;;;;;;;1.65;1.10;;;;;;;;;;4987004;28;20038;-77
2021/12/31 13:03:51;;;;;;;1.33;1.23;;;;;;;;;;4972312;28;20494;-77
2021/12/31 13:06:17;;;;;;;2.63;1.15;;;;;;;;;;4986679;28;20030;-77
2021/12/31 13:08:42;;;;;;;1.20;1.10;;;;;;;;;;4972144;28;20062;-77
2021/12/31 13:11:07;;;;;;;1.10;1.02;;;;;;;;;;4978862;28;20363;-77
2021/12/31 13:13:35;;;;;;;1.13;1.00;;;;;;;;;;4961462;28;20092;-77
2021/12/31 13:16:00;;;;;;;1.10;1.10;;;;;;;;;;4959872;28;20053;-77
2021/12/31 13:18:35;;;;;;;1.23;1.10;;;;;;;;;;4978751;28;20026;-77
2021/12/31 13:21:00;;;;;;;;;;;;;;;;;;4979579;28;20030;-77
2021/12/31 13:23:26;;;;;;;1.65;1.20;;;;;;;;;;4977773;28;19921;-77
2021/12/31 13:25:51;;;;;;;1.30;1.20;;;;;;;;;;4993907;28;20128;-77
2021/12/31 13:28:21;;;;;;;4.32;1.30;;;;;;;;;;4976967;28;20031;-77
2021/12/31 13:30:48;;;;;;;1.00;1.00;;;;;;;;;;4963847;28;20050;-78
2021/12/31 13:33:24;;;;;;;1.40;1.30;;;;;;;;;;4975032;28;20035;-78
2021/12/31 13:36:12;;;;;;;1.10;1.10;;;;;;;;;;4975037;28;20034;-77
2021/12/31 13:39:09;;;;;;;2.20;1.23;;;;;;;;;;4976441;28;20098;-78
2021/12/31 13:41:58;;;;;;;1.20;1.20;;;;;;;;;;4964803;28;20096;-78
2021/12/31 13:44:35;;;;;;;1.50;1.40;;;;;;;;;;4974154;28;20061;-78
2021/12/31 13:47:01;;;;;;;1.10;1.10;;;;;;;;;;4991914;28;20028;-78
2021/12/31 13:49:26;;;;;;;1.10;1.10;;;;;;;;;;4976783;28;20485;-78
2021/12/31 13:51:52;;;;;;;1.40;1.30;;;;;;;;;;4977324;28;20030;-77
2021/12/31 13:54:18;;;;;;;1.45;1.38;;;;;;;;;;4990113;28;20038;-77
2021/12/31 13:56:45;;;;;;;1.80;1.70;;;;;;;;;;4965419;28;20033;-78
2021/12/31 13:59:24;;;;;;;2.10;1.90;;;;;;;;;;4992713;28;20058;-78
2021/12/31 14:02:01;;;;;;;1.92;1.83;;;;;;;;;;4976202;28;20125;-78
2021/12/31 14:04:26;;;;;;;2.47;1.90;;;;;;;;;;4973161;28;20038;-78
2021/12/31 14:06:55;;;;;;;2.83;2.33;;;;;;;;;;4979560;28;20026;-79
2021/12/31 14:09:21;;;;;;;2.38;2.17;;;;;;;;;;4973937;28;20084;-78
2021/12/31 14:11:46;;;;;;;2.00;1.90;;;;;;;;;;4978297;28;20062;-78
2021/12/31 14:14:11;;;;;;;1.80;1.70;;;;;;;;;;4978750;28;20666;-78
2021/12/31 14:16:37;;;;;;;3.40;1.60;;;;;;;;;;4976821;28;20053;-76
2021/12/31 14:19:02;;;;;;;1.83;1.73;;;;;;;;;;4980518;28;20086;-77
2021/12/31 14:21:29;;;;;;;1.92;1.70;;;;;;;;;;4977564;28;20057;-76
2021/12/31 14:23:54;;;;;;;4.15;1.70;;;;;;;;;;4992603;28;20473;-76
2021/12/31 14:26:20;;;;;;;1.85;1.73;;;;;;;;;;4975873;28;20027;-76
2021/12/31 14:28:47;;;;;;;1.65;1.55;;;;;;;;;;4977353;28;20054;-76
2021/12/31 14:31:12;;;;;;;1.60;1.50;;;;;;;;;;4976711;28;20744;-76
2021/12/31 14:33:37;;;;;;;1.58;1.48;;;;;;;;;;4975858;28;20042;-80
2021/12/31 14:36:05;;;;;;;1.50;1.40;;;;;;;;;;4974739;28;20066;-80
2021/12/31 14:38:33;;;;;;;1.33;1.23;;;;;;;;;;4972275;28;20026;-78
2021/12/31 14:41:03;;;;;;;1.38;1.27;;;;;;;;;;4975002;28;20481;-78
2021/12/31 14:43:28;;;;;;;2.53;1.90;;;;;;;;;;4976853;28;20792;-78
2021/12/31 14:45:53;;;;;;;2.42;1.60;;;;;;;;;;4990325;28;20066;-77
2021/12/31 14:48:19;;;;;;;1.73;1.50;;;;;;;;;;4975757;28;20030;-78
2021/12/31 14:50:47;;;;;;;1.65;1.50;;;;;;;;;;4974627;28;20034;-78